To NAV CANADA Home Page Login to a new session Search on AWWS site Feedback and Comments Disclaimer Vers la page française équivalente Tips FAQ What's new on the site To the Forecasts and Observations / NOTAM section To "File a Flight Plan" website Publications and other links Update of the User's profile FIC Telephone Numbers My Weather Data Folder Route Weather Data Regional Weather Data Local Weather Data To the Forecasts and Observations / NOTAM section
Request Generated 02/24/2017 at 03:37:22 UTC . Weather information available at that time is displayed.

METAR/TAF

RANKIN INLET/NU    

METAR CYRT 240300Z 34011KT 15SM IC FEW130 SCT210 M25/M28 A3030 RMK
AC1CI2 SLP269=
METAR CYRT 240200Z 33007KT 15SM IC FEW130 SCT250 M25/M29 A3031 RMK
AC1CI2 SLP272=
METAR CYRT 240100Z 33010KT 15SM IC SCT290 M26/M30 A3032 RMK CI4
SLP275=

TAF CYRT 232341Z 2400/2412 32008KT P6SM IC SCT200
RMK NXT FCST BY 240600Z=
Your time UTC time
Weather data provided by Environment Canada and NAV CANADA